createdAt,value
2018-08-18T00:00:25.129Z,42.96
2018-08-18T00:02:55.753Z,43.81
2018-08-18T00:05:26.594Z,43.87
2018-08-18T00:07:57.176Z,44.32
2018-08-18T00:10:28.199Z,45.68
2018-08-18T00:12:58.933Z,44.17
2018-08-18T00:15:29.588Z,44.10
2018-08-18T00:18:00.301Z,43.06
2018-08-18T00:20:30.844Z,44.22
2018-08-18T00:23:01.569Z,46.34
2018-08-18T00:25:32.404Z,46.77
2018-08-18T00:28:17.001Z,46.08
2018-08-18T00:30:49.089Z,45.39
2018-08-18T00:33:20.769Z,45.65
2018-08-18T00:35:51.373Z,44.12
2018-08-18T00:38:22.837Z,45.33
2018-08-18T00:40:55.157Z,43.80
2018-08-18T00:43:25.794Z,43.89
2018-08-18T00:45:57.006Z,44.48
2018-08-18T00:48:27.617Z,43.93
2018-08-18T00:50:58.202Z,43.67
2018-08-18T00:53:29.038Z,42.99
2018-08-18T00:56:00.997Z,42.68
2018-08-18T00:58:32.298Z,42.31
2018-08-18T01:01:02.844Z,41.49
2018-08-18T01:03:40.548Z,43.14
2018-08-18T01:06:21.322Z,43.94
2018-08-18T01:08:56.013Z,43.36
2018-08-18T01:11:27.289Z,42.77
2018-08-18T01:13:59.189Z,42.40
2018-08-18T01:16:30.453Z,42.46
2018-08-18T01:19:01.053Z,42.15
2018-08-18T01:21:31.907Z,41.39
2018-08-18T01:24:02.689Z,42.84
2018-08-18T01:26:34.713Z,44.30
2018-08-18T01:29:16.108Z,43.69
2018-08-18T01:31:47.632Z,43.94
2018-08-18T01:34:18.481Z,45.82
2018-08-18T01:36:49.704Z,45.46
2018-08-18T01:39:22.049Z,45.92
2018-08-18T01:41:52.600Z,46.64
2018-08-18T01:44:24.644Z,46.59
2018-08-18T01:46:55.983Z,46.84
2018-08-18T01:49:36.385Z,46.47
2018-08-18T01:52:18.042Z,45.53
2018-08-18T01:54:48.663Z,46.54
2018-08-18T01:57:23.196Z,46.79
2018-08-18T01:59:53.728Z,45.56
2018-08-18T02:02:27.620Z,46.47
2018-08-18T02:05:06.850Z,46.68
2018-08-18T02:07:37.505Z,48.00
2018-08-18T02:10:08.204Z,46.10
2018-08-18T02:12:40.097Z,45.91
2018-08-18T02:15:10.764Z,46.90
2018-08-18T02:17:41.720Z,45.89
2018-08-18T02:20:12.265Z,45.95
2018-08-18T02:22:42.853Z,46.34
2018-08-18T02:25:13.443Z,46.18
2018-08-18T02:27:44.872Z,45.94
2018-08-18T02:30:20.524Z,45.84
2018-08-18T02:32:51.092Z,47.31
2018-08-18T02:35:23.201Z,46.22
2018-08-18T02:37:54.708Z,45.53
2018-08-18T02:40:25.225Z,45.67
2018-08-18T02:42:57.249Z,45.90
2018-08-18T02:45:27.861Z,45.87
2018-08-18T02:48:13.223Z,45.98
2018-08-18T02:50:48.953Z,46.08
2018-08-18T02:53:27.560Z,45.06
2018-08-18T02:55:58.301Z,44.46
2018-08-18T02:58:29.029Z,45.26
2018-08-18T03:00:59.696Z,44.79
2018-08-18T03:03:30.501Z,44.69
2018-08-18T03:06:15.357Z,46.62
2018-08-18T03:08:46.052Z,46.06
2018-08-18T03:11:16.593Z,45.05
2018-08-18T03:13:47.098Z,45.19
2018-08-18T03:16:17.748Z,43.62
2018-08-18T03:18:52.205Z,44.63
2018-08-18T03:21:29.556Z,44.82
2018-08-18T03:24:14.578Z,43.94
2018-08-18T03:26:47.079Z,42.47
2018-08-18T03:29:18.181Z,43.14
2018-08-18T03:31:49.181Z,43.55
2018-08-18T03:34:19.880Z,43.29
2018-08-18T03:36:51.560Z,43.42
2018-08-18T03:39:30.527Z,43.74
2018-08-18T03:42:02.280Z,43.65
2018-08-18T03:44:36.200Z,43.58
2018-08-18T03:47:06.934Z,43.90
2018-08-18T03:49:37.701Z,44.81
2018-08-18T03:52:08.289Z,44.15
2018-08-18T03:54:39.076Z,44.12
2018-08-18T03:57:09.505Z,45.11
2018-08-18T03:59:41.357Z,45.61
2018-08-18T04:02:11.917Z,45.68
2018-08-18T04:04:42.557Z,46.72
2018-08-18T04:07:13.150Z,46.12
2018-08-18T04:09:43.724Z,47.04
2018-08-18T04:12:14.420Z,47.13
2018-08-18T04:14:45.090Z,46.96
2018-08-18T04:17:30.166Z,46.15
2018-08-18T04:20:00.796Z,46.49
2018-08-18T04:22:31.691Z,46.71
2018-08-18T04:25:02.281Z,45.32
2018-08-18T04:27:47.586Z,45.83
2018-08-18T04:30:21.192Z,44.44
2018-08-18T04:32:54.985Z,45.54
2018-08-18T04:35:26.679Z,44.81
2018-08-18T04:37:58.338Z,44.42
2018-08-18T04:40:28.880Z,43.28
2018-08-18T04:43:01.044Z,42.18
2018-08-18T04:45:31.657Z,43.00
2018-08-18T04:48:02.348Z,40.98
2018-08-18T04:50:32.977Z,39.14
2018-08-18T04:53:03.685Z,39.14
2018-08-18T04:55:34.373Z,39.25
2018-08-18T04:58:05.103Z,38.48
2018-08-18T05:00:35.713Z,37.28
2018-08-18T05:03:06.512Z,37.66
2018-08-18T05:05:37.337Z,37.82
2018-08-18T05:08:08.081Z,37.92
2018-08-18T05:10:40.169Z,37.51
2018-08-18T05:13:12.263Z,35.77
2018-08-18T05:15:42.944Z,35.75
2018-08-18T05:18:13.835Z,36.15
2018-08-18T05:20:44.525Z,36.49
2018-08-18T05:23:25.957Z,35.98
2018-08-18T05:25:56.632Z,35.21
2018-08-18T05:28:27.528Z,34.02
2018-08-18T05:30:58.153Z,33.16
2018-08-18T05:33:29.417Z,32.78
2018-08-18T05:36:00.077Z,32.57
2018-08-18T05:38:31.025Z,33.84
2018-08-18T05:41:01.828Z,33.90
2018-08-18T05:43:32.583Z,33.81
2018-08-18T05:46:04.956Z,33.93
2018-08-18T05:48:36.954Z,35.29
2018-08-18T05:51:07.469Z,34.13
2018-08-18T05:53:38.166Z,32.93
2018-08-18T05:56:08.736Z,33.37
2018-08-18T05:58:54.029Z,33.67
2018-08-18T06:01:35.461Z,34.55
2018-08-18T06:04:11.498Z,34.95
2018-08-18T06:06:44.728Z,35.82
2018-08-18T06:09:16.401Z,35.71
2018-08-18T06:11:47.234Z,36.56
2018-08-18T06:14:18.377Z,34.64
2018-08-18T06:16:49.013Z,35.05
2018-08-18T06:19:20.402Z,34.66
2018-08-18T06:21:51.056Z,34.16
2018-08-18T06:24:22.246Z,34.55
2018-08-18T06:26:52.836Z,34.16
2018-08-18T06:29:23.637Z,34.13
2018-08-18T06:32:00.752Z,33.75
2018-08-18T06:34:34.809Z,33.27
2018-08-18T06:37:05.561Z,32.33
2018-08-18T06:39:52.865Z,31.38
2018-08-18T06:42:44.188Z,29.60
2018-08-18T06:45:17.417Z,29.62
2018-08-18T06:47:48.584Z,29.98
2018-08-18T06:50:20.045Z,30.22
2018-08-18T06:52:50.528Z,30.03
2018-08-18T06:55:21.417Z,29.41
2018-08-18T06:57:54.769Z,29.52
2018-08-18T07:00:26.305Z,30.29
2018-08-18T07:02:56.974Z,30.29
2018-08-18T07:05:27.642Z,29.35
2018-08-18T07:07:58.289Z,30.00
2018-08-18T07:10:37.705Z,28.92
2018-08-18T07:13:09.885Z,28.21
2018-08-18T07:15:41.970Z,27.06
2018-08-18T07:18:14.118Z,27.90
2018-08-18T07:20:45.364Z,28.39
2018-08-18T07:23:16.062Z,27.67
2018-08-18T07:25:51.818Z,27.90
2018-08-18T07:28:23.265Z,26.98
2018-08-18T07:30:54.039Z,26.69
2018-08-18T07:33:24.841Z,27.02
2018-08-18T07:35:56.241Z,27.63
2018-08-18T07:38:26.857Z,26.93
2018-08-18T07:40:57.729Z,26.95
2018-08-18T07:43:31.225Z,26.17
2018-08-18T07:46:09.024Z,26.86
2018-08-18T07:48:39.649Z,26.57
2018-08-18T07:51:11.568Z,26.49
2018-08-18T07:53:42.217Z,25.27
2018-08-18T07:56:12.688Z,26.04
2018-08-18T07:58:44.696Z,26.09
2018-08-18T08:01:15.377Z,24.31
2018-08-18T08:03:46.045Z,24.68
2018-08-18T08:06:16.526Z,24.25
2018-08-18T08:08:49.286Z,24.11
2018-08-18T08:11:20.049Z,22.67
2018-08-18T08:13:51.201Z,23.55
2018-08-18T08:16:21.917Z,23.78
2018-08-18T08:18:53.098Z,21.96
2018-08-18T08:21:24.158Z,21.44
2018-08-18T08:23:57.153Z,20.68
2018-08-18T08:26:27.901Z,21.07
2018-08-18T08:28:58.715Z,22.26
2018-08-18T08:31:29.313Z,20.44
2018-08-18T08:34:00.045Z,20.62
2018-08-18T08:36:30.881Z,19.78
2018-08-18T08:39:02.640Z,20.42
2018-08-18T08:41:33.909Z,20.37
2018-08-18T08:44:04.661Z,21.14
2018-08-18T08:46:35.339Z,19.70
2018-08-18T08:49:06.328Z,19.13
2018-08-18T08:51:36.965Z,19.97
2018-08-18T08:54:08.900Z,18.29
2018-08-18T08:56:40.088Z,18.16
2018-08-18T08:59:12.310Z,18.41
2018-08-18T09:01:42.916Z,17.56
2018-08-18T09:04:13.680Z,17.89
2018-08-18T09:06:48.308Z,19.34
2018-08-18T09:09:19.205Z,21.77
2018-08-18T09:11:49.858Z,18.48
2018-08-18T09:14:21.420Z,19.24
2018-08-18T09:16:52.329Z,18.37
2018-08-18T09:19:24.692Z,18.67
2018-08-18T09:21:56.714Z,18.59
2018-08-18T09:24:30.589Z,17.98
2018-08-18T09:27:04.404Z,18.59
2018-08-18T09:29:41.749Z,16.89
2018-08-18T09:32:12.421Z,18.88
2018-08-18T09:34:51.168Z,19.75
2018-08-18T09:37:22.353Z,19.03
2018-08-18T09:39:53.052Z,18.86
2018-08-18T09:42:23.796Z,20.84
2018-08-18T09:44:55.536Z,18.06
2018-08-18T09:47:26.574Z,19.62
2018-08-18T09:49:57.044Z,18.09
2018-08-18T09:52:27.680Z,19.40
2018-08-18T09:54:58.464Z,17.21
2018-08-18T09:57:29.116Z,17.67
2018-08-18T10:00:01.106Z,18.34
2018-08-18T10:02:31.711Z,17.78
2018-08-18T10:05:02.424Z,18.83
2018-08-18T10:07:33.021Z,17.69
2018-08-18T10:10:05.048Z,18.84
2018-08-18T10:12:35.774Z,17.23
2018-08-18T10:15:07.363Z,16.15
2018-08-18T10:17:37.961Z,18.53
2018-08-18T10:20:10.465Z,17.73
2018-08-18T10:22:41.837Z,18.17
2018-08-18T10:25:12.781Z,16.77
2018-08-18T10:27:43.455Z,16.03
2018-08-18T10:30:14.266Z,15.12
2018-08-18T10:33:01.188Z,15.81
2018-08-18T10:35:32.293Z,18.52
2018-08-18T10:38:04.209Z,16.34
2018-08-18T10:40:34.806Z,15.51
2018-08-18T10:43:05.346Z,15.43
2018-08-18T10:45:36.045Z,16.22
2018-08-18T10:48:06.839Z,15.22
2018-08-18T10:51:23.345Z,15.05
2018-08-18T10:53:54.609Z,15.89
2018-08-18T10:56:26.497Z,16.67
2018-08-18T10:59:15.993Z,17.73
2018-08-18T11:02:52.985Z,18.58
2018-08-18T11:05:24.560Z,17.45
2018-08-18T11:08:01.036Z,19.36
2018-08-18T11:10:33.469Z,19.12
2018-08-18T11:13:04.442Z,18.50
2018-08-18T11:15:35.189Z,17.68
2018-08-18T11:24:34.338Z,17.49
2018-08-18T11:27:05.088Z,18.66
2018-08-18T11:29:36.134Z,18.86
2018-08-18T11:32:06.805Z,16.24
2018-08-18T11:34:37.516Z,15.47
2018-08-18T11:37:09.021Z,15.76
2018-08-18T11:39:39.973Z,16.15
2018-08-18T11:42:10.665Z,15.40
2018-08-18T11:44:41.284Z,15.19
2018-08-18T11:47:11.913Z,15.48
2018-08-18T11:49:43.361Z,15.92
2018-08-18T11:52:13.966Z,15.67
2018-08-18T11:54:45.848Z,17.58
2018-08-18T11:57:16.440Z,16.95
2018-08-18T11:59:47.130Z,16.19
2018-08-18T12:02:18.526Z,15.33
2018-08-18T12:04:49.033Z,16.18
2018-08-18T12:07:19.809Z,16.74
2018-08-18T12:09:54.197Z,15.58
2018-08-18T12:12:24.895Z,13.79
2018-08-18T12:14:56.153Z,14.94
2018-08-18T12:17:26.998Z,14.67
2018-08-18T12:20:02.402Z,14.09
2018-08-18T12:22:34.290Z,14.78
2018-08-18T12:25:04.922Z,14.38
2018-08-18T12:27:35.756Z,14.62
2018-08-18T12:30:07.050Z,13.94
2018-08-18T12:32:37.440Z,14.42
2018-08-18T12:35:08.122Z,15.50
2018-08-18T12:37:39.203Z,14.75
2018-08-18T12:40:09.747Z,14.25
2018-08-18T12:42:41.977Z,15.32
2018-08-18T12:45:12.625Z,15.65
2018-08-18T12:47:57.252Z,15.60
2018-08-18T12:50:27.973Z,15.00
2018-08-18T12:53:00.169Z,15.40
2018-08-18T12:55:30.758Z,16.10
2018-08-18T12:58:01.461Z,16.12
2018-08-18T13:00:32.181Z,15.81
2018-08-18T13:03:02.809Z,15.92
2018-08-18T13:05:33.550Z,14.55
2018-08-18T13:08:04.330Z,16.33
2018-08-18T13:10:35.018Z,15.21
2018-08-18T13:13:06.572Z,14.81
2018-08-18T13:15:37.064Z,15.07
2018-08-18T13:18:09.052Z,15.10
2018-08-18T13:20:39.474Z,16.80
2018-08-18T13:23:10.508Z,15.80
2018-08-18T13:25:41.098Z,16.34
2018-08-18T13:28:12.995Z,16.03
2018-08-18T13:30:43.798Z,16.90
2018-08-18T13:33:14.616Z,15.77
2018-08-18T13:35:45.360Z,16.90
2018-08-18T13:38:28.752Z,17.21
2018-08-18T13:40:59.393Z,16.61
2018-08-18T13:43:44.932Z,15.79
2018-08-18T13:46:17.612Z,16.95
2018-08-18T13:48:54.173Z,16.86
2018-08-18T13:51:25.025Z,16.34
2018-08-18T13:53:56.368Z,15.63
2018-08-18T13:56:28.306Z,16.52
2018-08-18T13:58:59.318Z,17.58
2018-08-18T14:01:38.534Z,16.67
2018-08-18T14:04:16.229Z,15.70
2018-08-18T14:06:53.772Z,17.17
2018-08-18T14:09:24.517Z,15.75
2018-08-18T14:12:02.489Z,17.37
2018-08-18T14:14:33.136Z,17.62
2018-08-18T14:17:03.825Z,16.76
2018-08-18T14:19:34.654Z,17.71
2018-08-18T14:22:07.909Z,16.89
2018-08-18T14:24:40.516Z,17.81
2018-08-18T14:27:16.561Z,17.50
2018-08-18T14:29:47.224Z,16.56
2018-08-18T14:32:28.953Z,17.43
2018-08-18T14:35:07.364Z,17.35
2018-08-18T14:37:42.573Z,16.00
2018-08-18T14:40:17.915Z,15.19
2018-08-18T14:42:49.822Z,17.13
2018-08-18T14:45:21.877Z,17.53
2018-08-18T14:47:52.664Z,16.76
2018-08-18T14:50:26.476Z,17.12
2018-08-18T14:52:57.049Z,17.72
2018-08-18T14:55:27.708Z,16.91
2018-08-18T14:58:00.969Z,17.51
2018-08-18T15:00:32.900Z,17.52
2018-08-18T15:03:03.705Z,17.18
2018-08-18T15:05:34.524Z,17.48
2018-08-18T15:08:05.621Z,17.26
2018-08-18T15:10:45.521Z,17.62
2018-08-18T15:13:16.843Z,17.91
2018-08-18T15:15:47.662Z,17.50
2018-08-18T15:18:18.568Z,17.98
2018-08-18T15:20:49.513Z,17.48
2018-08-18T15:23:20.076Z,17.36
2018-08-18T15:25:51.979Z,18.51
2018-08-18T15:28:22.697Z,18.03
2018-08-18T15:30:54.884Z,17.54
2018-08-18T15:33:27.074Z,17.78
2018-08-18T15:35:59.157Z,17.25
2018-08-18T15:38:44.629Z,18.40
2018-08-18T15:41:15.446Z,18.18
2018-08-18T15:43:46.020Z,18.31
2018-08-18T15:46:16.657Z,17.63
2018-08-18T15:48:47.416Z,18.91
2018-08-18T15:51:18.298Z,18.57
2018-08-18T15:53:54.019Z,19.45
2018-08-18T15:56:25.769Z,19.40
2018-08-18T15:58:57.275Z,18.39
2018-08-18T16:01:32.756Z,18.57
2018-08-18T16:04:04.441Z,19.40
2018-08-18T16:06:36.377Z,19.03
2018-08-18T16:09:09.597Z,19.69
2018-08-18T16:11:40.384Z,19.53
2018-08-18T16:14:10.941Z,20.51
2018-08-18T16:16:58.466Z,19.60
2018-08-18T16:19:32.869Z,20.75
2018-08-18T16:22:05.132Z,20.00
2018-08-18T16:24:45.981Z,20.21
2018-08-18T16:27:16.642Z,20.98
2018-08-18T16:29:47.266Z,21.27
2018-08-18T16:32:25.635Z,20.22
2018-08-18T16:35:02.599Z,21.51
2018-08-18T16:37:36.172Z,21.36
2018-08-18T16:40:07.170Z,20.74
2018-08-18T16:42:37.867Z,22.39
2018-08-18T16:45:08.570Z,21.09
2018-08-18T16:47:41.761Z,21.44
2018-08-18T16:50:12.260Z,22.60
2018-08-18T16:52:44.177Z,21.36
2018-08-18T16:55:16.572Z,22.04
2018-08-18T16:57:47.288Z,22.89
2018-08-18T17:00:18.102Z,21.75
2018-08-18T17:02:48.956Z,22.26
2018-08-18T17:05:19.674Z,21.75
2018-08-18T17:07:50.586Z,22.13
2018-08-18T17:10:21.249Z,22.27
2018-08-18T17:12:51.976Z,22.65
2018-08-18T17:15:22.597Z,22.41
2018-08-18T17:17:53.390Z,23.08
2018-08-18T17:20:23.970Z,22.06
2018-08-18T17:22:54.825Z,21.76
2018-08-18T17:25:29.282Z,22.70
2018-08-18T17:28:00.037Z,22.81
2018-08-18T17:30:30.698Z,22.38
2018-08-18T17:33:01.901Z,22.73
2018-08-18T17:35:32.604Z,23.03
2018-08-18T17:38:05.192Z,23.09
2018-08-18T17:40:35.818Z,22.77
2018-08-18T17:43:07.694Z,23.78
2018-08-18T17:45:43.136Z,23.08
2018-08-18T17:48:13.781Z,24.12
2018-08-18T17:50:44.372Z,24.05
2018-08-18T17:53:15.837Z,23.94
2018-08-18T17:55:52.948Z,24.66
2018-08-18T17:58:23.838Z,23.46
2018-08-18T18:00:54.552Z,24.63
2018-08-18T18:03:25.533Z,24.50
2018-08-18T18:05:57.124Z,23.32
2018-08-18T18:08:28.595Z,24.19
2018-08-18T18:10:59.506Z,23.82
2018-08-18T18:13:30.945Z,24.20
2018-08-18T18:16:01.548Z,24.61
2018-08-18T18:18:46.604Z,25.12
2018-08-18T18:21:17.077Z,24.75
2018-08-18T18:23:47.969Z,24.65
2018-08-18T18:26:18.509Z,23.83
2018-08-18T18:28:49.273Z,24.98
2018-08-18T18:31:19.853Z,24.01
2018-08-18T18:33:55.530Z,24.90
2018-08-18T18:36:26.249Z,24.07
2018-08-18T18:38:58.199Z,24.95
2018-08-18T18:41:28.852Z,25.01
2018-08-18T18:44:04.376Z,24.67
2018-08-18T18:46:35.018Z,25.27
2018-08-18T18:49:24.386Z,25.12
2018-08-18T18:51:55.092Z,25.84
2018-08-18T18:54:25.939Z,24.79
2018-08-18T18:56:56.677Z,24.80
2018-08-18T18:59:28.034Z,24.52
2018-08-18T19:01:59.245Z,25.25
2018-08-18T19:04:29.918Z,24.10
2018-08-18T19:07:05.300Z,24.56
2018-08-18T19:09:36.150Z,24.02
2018-08-18T19:12:06.914Z,23.75
2018-08-18T19:14:38.844Z,23.81
2018-08-18T19:17:09.493Z,24.27
2018-08-18T19:19:41.642Z,23.99
2018-08-18T19:22:12.237Z,24.85
2018-08-18T19:24:42.880Z,23.64
2018-08-18T19:27:13.478Z,24.93
2018-08-18T19:29:44.172Z,25.11
2018-08-18T19:32:14.700Z,23.99
2018-08-18T19:34:45.681Z,24.57
2018-08-18T19:37:16.178Z,24.83
2018-08-18T19:39:47.185Z,25.04
2018-08-18T19:42:18.084Z,24.72
2018-08-18T19:44:50.684Z,24.37
2018-08-18T19:47:36.281Z,24.31
2018-08-18T19:50:09.153Z,25.02
2018-08-18T19:52:39.765Z,25.26
2018-08-18T19:55:13.729Z,24.88
2018-08-18T19:57:44.276Z,24.17
2018-08-18T20:00:21.737Z,24.29
2018-08-18T20:03:03.389Z,24.84
2018-08-18T20:05:34.277Z,25.24
2018-08-18T20:08:04.907Z,24.43
2018-08-18T20:10:49.009Z,24.90
2018-08-18T20:13:24.922Z,25.03
2018-08-18T20:15:57.137Z,25.08
2018-08-18T20:18:27.698Z,25.54
2018-08-18T20:21:00.391Z,25.53
2018-08-18T20:23:31.239Z,25.79
2018-08-18T20:26:02.898Z,25.22
2018-08-18T20:28:34.189Z,25.80
2018-08-18T20:31:04.925Z,24.99
2018-08-18T20:33:35.549Z,24.88
2018-08-18T20:36:06.233Z,24.80
2018-08-18T20:38:43.717Z,24.65
2018-08-18T20:41:14.741Z,24.86
2018-08-18T20:43:47.701Z,24.99
2018-08-18T20:46:18.474Z,25.15
2018-08-18T20:48:48.738Z,27.41
2018-08-18T20:51:23.162Z,26.05
2018-08-18T20:53:53.526Z,26.91
2018-08-18T20:56:23.979Z,28.15
2018-08-18T20:58:54.740Z,28.27
2018-08-18T21:01:25.556Z,30.29
2018-08-18T21:03:56.609Z,32.36
2018-08-18T21:06:28.749Z,31.70
2018-08-18T21:08:59.598Z,31.20
2018-08-18T21:11:30.436Z,30.48
2018-08-18T21:14:01.201Z,30.40
2018-08-18T21:16:31.891Z,32.01
2018-08-18T21:19:02.681Z,33.35
2018-08-18T21:21:36.766Z,33.18
2018-08-18T21:24:07.539Z,34.20
2018-08-18T21:26:39.018Z,33.95
2018-08-18T21:29:09.855Z,34.37
2018-08-18T21:31:40.499Z,33.71
2018-08-18T21:34:11.269Z,34.37
2018-08-18T21:36:42.237Z,35.79
2018-08-18T21:39:12.844Z,35.53
2018-08-18T21:41:45.101Z,35.98
2018-08-18T21:44:16.300Z,35.01
2018-08-18T21:46:47.797Z,35.43
2018-08-18T21:49:18.228Z,36.06
2018-08-18T21:51:48.854Z,35.88
2018-08-18T21:54:19.469Z,36.06
2018-08-18T21:56:59.405Z,35.91
2018-08-18T21:59:52.212Z,36.19
2018-08-18T22:02:41.212Z,36.04
2018-08-18T22:05:14.657Z,35.92
2018-08-18T22:07:51.732Z,36.14
2018-08-18T22:10:22.719Z,35.82
2018-08-18T22:12:53.564Z,36.76
2018-08-18T22:15:24.269Z,37.54
2018-08-18T22:17:55.186Z,37.46
2018-08-18T22:20:25.783Z,37.56
2018-08-18T22:22:56.646Z,37.80
2018-08-18T22:25:27.240Z,38.42
2018-08-18T22:27:58.149Z,37.57
2018-08-18T22:30:29.128Z,37.66
2018-08-18T22:33:01.442Z,37.90
2018-08-18T22:35:32.229Z,37.29
2018-08-18T22:38:04.259Z,38.02
2018-08-18T22:40:37.041Z,38.12
2018-08-18T22:43:07.985Z,36.69
2018-08-18T22:45:39.109Z,37.26
2018-08-18T22:48:11.025Z,37.13
2018-08-18T22:50:41.409Z,37.38
2018-08-18T22:53:16.180Z,37.39
2018-08-18T22:55:46.945Z,36.68
2018-08-18T22:58:17.546Z,37.93
2018-08-18T23:00:51.557Z,37.11
2018-08-18T23:03:22.113Z,36.93
2018-08-18T23:05:52.641Z,37.23
2018-08-18T23:08:23.493Z,38.41
2018-08-18T23:10:54.013Z,38.68
2018-08-18T23:13:52.425Z,38.86
2018-08-18T23:16:22.935Z,37.62
2018-08-18T23:18:53.721Z,38.46
2018-08-18T23:21:29.032Z,38.50
2018-08-18T23:24:02.125Z,39.35
2018-08-18T23:26:32.862Z,39.73
2018-08-18T23:29:03.629Z,39.07
2018-08-18T23:31:34.365Z,38.29
2018-08-18T23:34:05.108Z,36.97
2018-08-18T23:36:35.845Z,36.70
2018-08-18T23:39:08.712Z,38.13
2018-08-18T23:41:39.361Z,38.25
2018-08-18T23:44:09.983Z,37.42
2018-08-18T23:46:40.573Z,38.65
2018-08-18T23:49:11.313Z,39.58
2018-08-18T23:51:43.066Z,39.52
2018-08-18T23:54:18.645Z,39.76
2018-08-18T23:56:49.445Z,39.49
2018-08-18T23:59:21.529Z,39.25
